createdAt,value
2022-08-22T00:01:07.723Z,15.93
2022-08-22T00:02:42.423Z,17.53
2022-08-22T00:03:47.403Z,15.89
2022-08-22T00:06:20.436Z,15.87
2022-08-22T00:09:19.125Z,15.84
2022-08-22T00:11:58.020Z,15.81
2022-08-22T00:14:35.132Z,15.75
2022-08-22T00:17:11.836Z,15.72
2022-08-22T00:20:13.287Z,15.70
2022-08-22T00:22:44.648Z,15.68
2022-08-22T00:25:32.231Z,15.64
2022-08-22T00:28:20.829Z,15.60
2022-08-22T00:30:58.016Z,15.57
2022-08-22T00:33:53.591Z,15.53
2022-08-22T00:36:56.571Z,15.48
2022-08-22T00:39:55.425Z,15.42
2022-08-22T00:43:00.440Z,15.36
2022-08-22T00:46:05.685Z,15.32
2022-08-22T00:48:39.217Z,15.28
2022-08-22T00:51:27.957Z,15.30
2022-08-22T00:54:34.223Z,15.29
2022-08-22T00:57:16.092Z,15.26
2022-08-22T00:59:58.745Z,15.26
2022-08-22T01:02:54.592Z,15.26
2022-08-22T01:05:46.026Z,15.23
2022-08-22T01:08:35.049Z,15.26
2022-08-22T01:11:50.771Z,15.27
2022-08-22T01:14:35.128Z,15.24
2022-08-22T01:17:05.719Z,15.24
2022-08-22T01:20:10.715Z,15.25
2022-08-22T01:23:15.487Z,15.28
2022-08-22T01:26:10.213Z,15.32
2022-08-22T01:28:58.109Z,15.34
2022-08-22T01:31:34.756Z,15.36
2022-08-22T01:34:27.571Z,15.36
2022-08-22T01:37:15.791Z,15.35
2022-08-22T01:40:08.392Z,15.35
2022-08-22T01:43:02.364Z,15.34
2022-08-22T01:46:08.179Z,15.36
2022-08-22T01:48:42.098Z,15.35
2022-08-22T01:51:28.496Z,15.33
2022-08-22T01:54:05.839Z,15.27
2022-08-22T01:56:40.001Z,15.25
2022-08-22T01:59:33.849Z,15.22
2022-08-22T02:02:04.689Z,15.22
2022-08-22T02:04:41.200Z,15.18
2022-08-22T02:07:14.518Z,15.14
2022-08-22T02:10:02.797Z,15.12
2022-08-22T02:12:41.873Z,15.11
2022-08-22T02:15:22.900Z,15.11
2022-08-22T02:17:50.500Z,15.11
2022-08-22T02:20:27.924Z,15.10
2022-08-22T02:23:04.654Z,15.11
2022-08-22T02:25:46.461Z,15.10
2022-08-22T02:28:29.741Z,15.07
2022-08-22T02:31:04.598Z,15.04
2022-08-22T02:33:38.017Z,15.00
2022-08-22T02:36:24.823Z,14.93
2022-08-22T02:39:18.849Z,14.87
2022-08-22T02:41:53.700Z,14.85
2022-08-22T02:44:28.860Z,14.82
2022-08-22T02:47:03.199Z,14.73
2022-08-22T02:49:43.606Z,14.65
2022-08-22T02:52:24.620Z,14.60
2022-08-22T02:55:07.443Z,14.55
2022-08-22T02:57:52.754Z,14.53
2022-08-22T03:00:30.749Z,14.55
2022-08-22T03:03:16.317Z,14.57
2022-08-22T03:05:49.102Z,14.57
2022-08-22T03:08:33.830Z,14.57
2022-08-22T03:11:26.909Z,14.55
2022-08-22T03:14:06.241Z,14.52
2022-08-22T03:16:52.832Z,14.48
2022-08-22T03:19:29.625Z,14.48
2022-08-22T03:22:07.207Z,14.45
2022-08-22T03:25:02.061Z,14.43
2022-08-22T03:27:39.476Z,14.43
2022-08-22T03:30:16.901Z,14.44
2022-08-22T03:32:49.205Z,14.42
2022-08-22T03:35:35.097Z,14.42
2022-08-22T03:38:14.987Z,14.44
2022-08-22T03:41:12.887Z,14.43
2022-08-22T03:44:05.395Z,14.40
2022-08-22T03:47:08.105Z,14.38
2022-08-22T03:50:30.513Z,14.38
2022-08-22T03:53:24.989Z,14.37
2022-08-22T03:56:29.599Z,14.36
2022-08-22T03:59:12.401Z,14.36
2022-08-22T04:02:43.182Z,14.36
2022-08-22T04:05:29.735Z,14.35
2022-08-22T04:08:15.449Z,14.36
2022-08-22T04:11:11.640Z,14.38
2022-08-22T04:14:03.642Z,14.39
2022-08-22T04:16:49.387Z,14.40
2022-08-22T04:19:29.863Z,14.40
2022-08-22T04:22:35.687Z,14.38
2022-08-22T04:25:15.368Z,14.35
2022-08-22T04:28:00.788Z,14.33
2022-08-22T04:30:35.468Z,14.35
2022-08-22T04:33:12.530Z,14.34
2022-08-22T04:35:58.482Z,14.32
2022-08-22T04:38:38.300Z,14.28
2022-08-22T04:41:18.621Z,14.27
2022-08-22T04:43:57.106Z,14.28
2022-08-22T04:46:46.478Z,14.25
2022-08-22T04:49:24.744Z,14.23
2022-08-22T04:52:15.624Z,14.25
2022-08-22T04:54:56.618Z,14.27
2022-08-22T04:57:45.501Z,14.26
2022-08-22T05:00:16.029Z,14.24
2022-08-22T05:02:49.856Z,14.26
2022-08-22T05:05:23.650Z,14.24
2022-08-22T05:07:56.322Z,14.27
2022-08-22T05:10:33.520Z,14.27
2022-08-22T05:13:12.420Z,14.25
2022-08-22T05:15:46.036Z,14.20
2022-08-22T05:18:19.582Z,14.19
2022-08-22T05:20:51.069Z,14.17
2022-08-22T05:23:29.198Z,14.19
2022-08-22T05:26:02.709Z,14.17
2022-08-22T05:28:35.545Z,14.17
2022-08-22T05:31:12.714Z,14.19
2022-08-22T05:33:49.133Z,14.12
2022-08-22T05:36:23.297Z,14.02
2022-08-22T05:38:56.791Z,13.93
2022-08-22T05:41:29.019Z,13.90
2022-08-22T05:43:56.665Z,13.85
2022-08-22T05:46:44.294Z,13.80
2022-08-22T05:49:19.336Z,13.77
2022-08-22T05:52:24.921Z,13.73
2022-08-22T05:55:17.435Z,13.67
2022-08-22T05:57:50.922Z,13.65
2022-08-22T06:00:22.535Z,13.67
2022-08-22T06:03:12.391Z,13.71
2022-08-22T06:05:45.284Z,13.74
2022-08-22T06:08:58.573Z,13.77
2022-08-22T06:11:43.013Z,13.78
2022-08-22T06:14:25.496Z,13.80
2022-08-22T06:17:10.490Z,13.84
2022-08-22T06:19:45.099Z,13.86
2022-08-22T06:22:25.978Z,13.86
2022-08-22T06:25:01.038Z,13.87
2022-08-22T06:27:31.187Z,13.87
2022-08-22T06:30:03.037Z,13.84
2022-08-22T06:32:58.921Z,13.81
2022-08-22T06:35:53.833Z,13.82
2022-08-22T06:38:28.532Z,13.77
2022-08-22T06:40:58.635Z,13.72
2022-08-22T06:43:27.025Z,13.70
2022-08-22T06:45:54.823Z,13.69
2022-08-22T06:48:24.337Z,13.69
2022-08-22T06:50:57.148Z,13.70
2022-08-22T06:53:47.864Z,13.75
2022-08-22T06:56:30.318Z,13.80
2022-08-22T06:59:01.661Z,13.84
2022-08-22T07:01:36.207Z,13.89
2022-08-22T07:04:09.489Z,13.92
2022-08-22T07:06:41.623Z,13.96
2022-08-22T07:09:27.877Z,14.00
2022-08-22T07:12:00.404Z,14.02
2022-08-22T07:14:33.210Z,14.06
2022-08-22T07:17:04.564Z,14.10
2022-08-22T07:19:38.501Z,14.11
2022-08-22T07:22:16.209Z,14.15
2022-08-22T07:24:48.625Z,14.20
2022-08-22T07:27:31.923Z,14.21
2022-08-22T07:30:10.143Z,14.24
2022-08-22T07:32:43.274Z,14.24
2022-08-22T07:35:35.825Z,14.20
2022-08-22T07:38:18.955Z,14.19
2022-08-22T07:41:20.155Z,14.19
2022-08-22T07:44:11.121Z,14.22
2022-08-22T07:47:00.871Z,14.31
2022-08-22T07:49:52.961Z,14.35
2022-08-22T07:52:22.359Z,14.44
2022-08-22T07:54:59.829Z,14.52
2022-08-22T07:57:34.559Z,14.54
2022-08-22T08:00:11.751Z,14.54
2022-08-22T08:02:46.359Z,14.56
2022-08-22T08:05:15.368Z,14.55
2022-08-22T08:07:45.610Z,14.48
2022-08-22T08:10:19.447Z,14.45
2022-08-22T08:13:02.478Z,14.43
2022-08-22T08:15:33.922Z,14.40
2022-08-22T08:18:10.516Z,14.40
2022-08-22T08:20:38.632Z,14.41
2022-08-22T08:23:10.102Z,14.46
2022-08-22T08:26:00.529Z,14.51
2022-08-22T08:28:34.836Z,14.58
2022-08-22T08:31:08.824Z,14.67
2022-08-22T08:33:40.752Z,14.79
2022-08-22T08:36:26.476Z,14.95
2022-08-22T08:39:14.079Z,15.20
2022-08-22T08:41:44.576Z,15.42
2022-08-22T08:44:54.341Z,15.60
2022-08-22T08:47:31.385Z,15.75
2022-08-22T08:50:24.183Z,15.83
2022-08-22T08:53:25.415Z,15.85
2022-08-22T08:56:34.463Z,15.95
2022-08-22T08:59:24.770Z,16.06
2022-08-22T09:01:53.371Z,16.21
2022-08-22T09:04:37.337Z,16.33
2022-08-22T09:07:16.907Z,16.47
2022-08-22T09:10:02.978Z,16.64
2022-08-22T09:12:55.995Z,16.71
2022-08-22T09:15:40.776Z,16.74
2022-08-22T09:18:46.082Z,16.77
2022-08-22T09:22:01.893Z,16.80
2022-08-22T09:25:00.543Z,16.80
2022-08-22T09:27:36.042Z,16.83
2022-08-22T09:30:11.749Z,16.87
2022-08-22T09:32:48.672Z,16.94
2022-08-22T09:35:28.161Z,17.12
2022-08-22T09:38:23.857Z,17.22
2022-08-22T09:41:12.713Z,17.32
2022-08-22T09:44:06.490Z,17.38
2022-08-22T09:46:55.364Z,17.50
2022-08-22T09:49:32.889Z,17.65
2022-08-22T09:52:33.097Z,17.84
2022-08-22T09:55:11.804Z,18.07
2022-08-22T09:58:03.404Z,18.20
2022-08-22T10:00:54.958Z,18.22
2022-08-22T10:03:41.463Z,18.21
2022-08-22T10:06:20.205Z,18.17
2022-08-22T10:08:56.050Z,18.12
2022-08-22T10:11:42.312Z,18.02
2022-08-22T10:14:22.381Z,17.92
2022-08-22T10:17:29.917Z,17.79
2022-08-22T10:20:10.289Z,17.81
2022-08-22T10:23:17.229Z,17.83
2022-08-22T10:25:52.874Z,17.87
2022-08-22T10:28:49.748Z,17.81
2022-08-22T10:31:30.757Z,17.78
2022-08-22T10:34:25.123Z,17.72
2022-08-22T10:37:36.651Z,17.65
2022-08-22T10:40:19.339Z,17.66
2022-08-22T10:43:16.137Z,17.68
2022-08-22T10:45:48.493Z,17.70
2022-08-22T10:48:25.883Z,17.70
2022-08-22T10:51:03.266Z,17.81
2022-08-22T10:56:55.955Z,17.97
2022-08-22T10:59:48.183Z,17.67
2022-08-22T11:02:42.224Z,17.33
2022-08-22T11:05:28.170Z,17.09
2022-08-22T11:08:13.761Z,16.54
2022-08-22T11:11:17.579Z,16.36
2022-08-22T11:14:24.403Z,16.32
2022-08-22T11:17:11.993Z,16.28
2022-08-22T11:20:28.209Z,16.18
2022-08-22T11:23:12.325Z,16.16
2022-08-22T11:25:43.733Z,16.18
2022-08-22T11:28:45.145Z,16.12
2022-08-22T11:31:47.268Z,16.03
2022-08-22T11:34:44.803Z,16.01
2022-08-22T11:37:43.499Z,16.05
2022-08-22T11:40:22.800Z,16.06
2022-08-22T11:42:59.181Z,16.09
2022-08-22T11:45:44.423Z,16.16
2022-08-22T11:48:25.350Z,16.23
2022-08-22T11:50:58.789Z,16.24
2022-08-22T11:53:32.443Z,16.27
2022-08-22T11:56:18.713Z,16.25
2022-08-22T11:59:15.728Z,16.27
2022-08-22T12:01:52.739Z,16.33
2022-08-22T12:04:28.760Z,16.38
2022-08-22T12:07:12.528Z,16.42
2022-08-22T12:09:47.806Z,16.46
2022-08-22T12:12:27.999Z,16.50
2022-08-22T12:15:03.283Z,16.53
2022-08-22T12:18:08.917Z,16.48
2022-08-22T12:20:45.307Z,16.44
2022-08-22T12:23:30.384Z,16.50
2022-08-22T12:26:23.604Z,16.56
2022-08-22T12:29:15.597Z,16.63
2022-08-22T12:32:27.466Z,16.71
2022-08-22T12:34:55.400Z,16.79
2022-08-22T12:37:52.805Z,16.84
2022-08-22T12:40:48.189Z,16.90
2022-08-22T12:43:19.655Z,16.99
2022-08-22T12:46:31.422Z,17.09
2022-08-22T12:49:29.339Z,17.08
2022-08-22T12:51:59.829Z,17.17
2022-08-22T12:54:50.355Z,17.22
2022-08-22T12:57:36.368Z,17.25
2022-08-22T13:00:27.003Z,17.34
2022-08-22T13:03:01.772Z,17.37
2022-08-22T13:05:34.314Z,17.37
2022-08-22T13:08:31.551Z,17.36
2022-08-22T13:11:09.952Z,17.37
2022-08-22T13:13:56.808Z,17.38
2022-08-22T13:16:34.723Z,17.43
2022-08-22T13:19:13.701Z,17.43
2022-08-22T13:22:07.025Z,17.36
2022-08-22T13:24:41.921Z,17.33
2022-08-22T13:27:50.999Z,17.35
2022-08-22T13:30:32.464Z,17.33
2022-08-22T13:33:09.801Z,17.36
2022-08-22T13:35:52.161Z,17.39
2022-08-22T13:38:46.307Z,17.39
2022-08-22T13:41:26.269Z,17.34
2022-08-22T13:44:09.995Z,17.29
2022-08-22T13:46:52.736Z,17.29
2022-08-22T13:49:35.202Z,17.23
2022-08-22T13:52:29.974Z,17.11
2022-08-22T13:55:12.606Z,16.96
2022-08-22T13:57:46.171Z,16.87
2022-08-22T14:00:29.265Z,16.79
2022-08-22T14:03:01.411Z,16.72
2022-08-22T14:05:39.619Z,16.67
2022-08-22T14:08:18.394Z,16.70
2022-08-22T14:10:58.020Z,16.70
2022-08-22T14:13:36.723Z,16.65
2022-08-22T14:16:10.364Z,16.67
2022-08-22T14:18:45.566Z,16.69
2022-08-22T14:21:40.669Z,16.76
2022-08-22T14:24:27.169Z,16.83
2022-08-22T14:27:05.707Z,16.93
2022-08-22T14:29:50.117Z,17.00
2022-08-22T14:32:23.030Z,17.01
2022-08-22T14:35:23.309Z,16.89
2022-08-22T14:38:27.283Z,16.89
2022-08-22T14:41:04.031Z,16.86
2022-08-22T14:43:32.994Z,16.81
2022-08-22T14:46:08.663Z,16.77
2022-08-22T14:48:42.483Z,16.67
2022-08-22T14:51:21.304Z,16.55
2022-08-22T14:53:50.198Z,16.47
2022-08-22T14:56:29.784Z,16.40
2022-08-22T14:59:06.632Z,16.38
2022-08-22T15:01:53.139Z,16.41
2022-08-22T15:04:49.840Z,16.37
2022-08-22T15:07:28.363Z,16.38
2022-08-22T15:10:33.226Z,16.39
2022-08-22T15:13:07.988Z,16.43
2022-08-22T15:15:54.988Z,16.47
2022-08-22T15:18:23.567Z,16.50
2022-08-22T15:21:08.673Z,16.49
2022-08-22T15:23:45.282Z,16.42
2022-08-22T15:26:20.918Z,16.41
2022-08-22T15:28:57.230Z,16.41
2022-08-22T15:31:25.569Z,16.40
2022-08-22T15:34:06.850Z,16.32
2022-08-22T15:36:34.691Z,16.25
2022-08-22T15:39:34.883Z,16.23
2022-08-22T15:42:05.777Z,16.22
2022-08-22T15:44:40.615Z,16.21
2022-08-22T15:47:31.551Z,16.23
2022-08-22T15:50:10.495Z,16.25
2022-08-22T15:53:07.058Z,16.25
2022-08-22T15:55:35.581Z,16.26
2022-08-22T15:58:20.836Z,16.24
2022-08-22T16:01:09.970Z,16.26
2022-08-22T16:04:14.430Z,16.23
2022-08-22T16:06:55.229Z,16.25
2022-08-22T16:09:46.301Z,16.28
2022-08-22T16:12:29.654Z,16.28
2022-08-22T16:14:59.031Z,16.31
2022-08-22T16:17:29.644Z,16.34
2022-08-22T16:20:19.930Z,16.36
2022-08-22T16:22:56.780Z,16.38
2022-08-22T16:25:44.619Z,16.44
2022-08-22T16:28:36.132Z,16.48
2022-08-22T16:31:35.729Z,16.52
2022-08-22T16:34:18.669Z,16.53
2022-08-22T16:37:21.601Z,16.52
2022-08-22T16:40:01.726Z,16.49
2022-08-22T16:42:39.216Z,16.50
2022-08-22T16:45:39.499Z,16.49
2022-08-22T16:48:39.574Z,16.45
2022-08-22T16:51:18.563Z,16.40
2022-08-22T16:54:07.393Z,16.35
2022-08-22T16:57:15.488Z,16.31
2022-08-22T17:00:05.017Z,16.28
2022-08-22T17:03:06.366Z,16.27
2022-08-22T17:05:55.812Z,16.25
2022-08-22T17:08:41.900Z,16.20
2022-08-22T17:11:56.180Z,16.19
2022-08-22T17:14:56.674Z,16.16
2022-08-22T17:17:59.870Z,16.19
2022-08-22T17:20:49.688Z,16.22
2022-08-22T17:23:38.877Z,16.21
2022-08-22T17:26:27.543Z,16.21
2022-08-22T17:29:53.801Z,16.21
2022-08-22T17:32:46.701Z,16.20
2022-08-22T17:35:40.272Z,16.17
2022-08-22T17:38:13.593Z,16.12
2022-08-22T17:40:53.468Z,16.09
2022-08-22T17:43:39.976Z,16.08
2022-08-22T17:46:41.483Z,16.08
2022-08-22T17:49:32.763Z,16.13
2022-08-22T17:52:00.341Z,16.10
2022-08-22T17:54:45.964Z,16.10
2022-08-22T17:57:33.448Z,16.08
2022-08-22T18:00:13.269Z,16.06
2022-08-22T18:03:08.988Z,16.01
2022-08-22T18:05:47.179Z,15.99
2022-08-22T18:09:13.305Z,16.00
2022-08-22T18:11:44.784Z,15.98
2022-08-22T18:14:21.441Z,15.99
2022-08-22T18:16:52.409Z,16.01
2022-08-22T18:19:55.609Z,16.01
2022-08-22T18:22:41.617Z,16.01
2022-08-22T18:25:18.283Z,15.98
2022-08-22T18:27:54.436Z,15.94
2022-08-22T18:30:23.835Z,15.92
2022-08-22T18:33:01.774Z,15.90
2022-08-22T18:35:59.116Z,15.89
2022-08-22T18:38:35.544Z,15.87
2022-08-22T18:41:13.339Z,15.81
2022-08-22T18:43:48.192Z,15.74
2022-08-22T18:46:37.594Z,15.72
2022-08-22T18:49:25.028Z,15.71
2022-08-22T18:52:13.816Z,15.71
2022-08-22T18:55:06.082Z,15.72
2022-08-22T18:57:52.493Z,15.71
2022-08-22T19:00:40.506Z,15.71
2022-08-22T19:03:17.058Z,15.71
2022-08-22T19:06:01.129Z,15.69
2022-08-22T19:08:38.689Z,15.69
2022-08-22T19:11:19.889Z,15.68
2022-08-22T19:13:54.821Z,15.67
2022-08-22T19:16:28.388Z,15.66
2022-08-22T19:19:01.633Z,15.65
2022-08-22T19:21:47.605Z,15.65
2022-08-22T19:24:27.391Z,15.65
2022-08-22T19:27:07.059Z,15.66
2022-08-22T19:29:34.604Z,15.68
2022-08-22T19:32:12.916Z,15.71
2022-08-22T19:34:47.649Z,15.70
2022-08-22T19:37:30.801Z,15.69
2022-08-22T19:40:10.118Z,15.69
2022-08-22T19:42:44.193Z,15.69
2022-08-22T19:45:27.246Z,15.70
2022-08-22T19:48:01.402Z,15.74
2022-08-22T19:50:34.221Z,15.75
2022-08-22T19:53:31.192Z,15.75
2022-08-22T19:56:21.761Z,15.78
2022-08-22T19:59:07.360Z,15.80
2022-08-22T20:01:56.258Z,15.83
2022-08-22T20:04:36.100Z,15.85
2022-08-22T20:07:15.346Z,15.87
2022-08-22T20:10:01.716Z,15.85
2022-08-22T20:12:29.273Z,15.84
2022-08-22T20:14:57.184Z,15.82
2022-08-22T20:17:24.761Z,15.81
2022-08-22T20:22:52.891Z,15.84
2022-08-22T20:25:41.842Z,15.86
2022-08-22T20:28:30.639Z,15.87
2022-08-22T20:31:01.116Z,15.89
2022-08-22T20:33:36.943Z,15.93
2022-08-22T20:36:28.005Z,15.97
2022-08-22T20:39:02.653Z,16.00
2022-08-22T20:41:40.527Z,16.04
2022-08-22T20:44:18.419Z,16.06
2022-08-22T20:46:46.285Z,16.08
2022-08-22T20:49:20.369Z,16.06
2022-08-22T20:51:54.561Z,16.08
2022-08-22T20:54:24.898Z,16.11
2022-08-22T20:56:55.192Z,16.10
2022-08-22T20:59:29.769Z,16.11
2022-08-22T21:02:04.862Z,16.13
2022-08-22T21:04:57.640Z,16.16
2022-08-22T21:07:35.026Z,16.19
2022-08-22T21:10:27.863Z,16.20
2022-08-22T21:13:11.063Z,16.22
2022-08-22T21:15:40.772Z,16.23
2022-08-22T21:18:11.766Z,16.24
2022-08-22T21:20:40.406Z,16.22
2022-08-22T21:23:13.848Z,16.18
2022-08-22T21:25:59.204Z,16.18
2022-08-22T21:28:40.672Z,16.20
2022-08-22T21:31:14.863Z,16.21
2022-08-22T21:33:45.683Z,16.22
2022-08-22T21:36:21.169Z,16.23
2022-08-22T21:39:01.119Z,16.23
2022-08-22T21:41:39.682Z,16.24
2022-08-22T21:44:37.740Z,16.24
2022-08-22T21:47:31.290Z,16.24
2022-08-22T21:50:09.774Z,16.23
2022-08-22T21:52:44.193Z,16.23
2022-08-22T21:55:36.557Z,16.24
2022-08-22T21:58:35.465Z,16.22
2022-08-22T22:01:29.144Z,16.20
2022-08-22T22:04:00.208Z,16.22
2022-08-22T22:06:27.847Z,16.21
2022-08-22T22:08:55.524Z,16.20
2022-08-22T22:11:23.140Z,16.19
2022-08-22T22:13:50.946Z,16.19
2022-08-22T22:16:25.583Z,16.20
2022-08-22T22:18:53.770Z,16.20
2022-08-22T22:21:21.502Z,16.17
2022-08-22T22:23:50.697Z,16.17
2022-08-22T22:26:18.876Z,16.15
2022-08-22T22:28:48.313Z,16.12
2022-08-22T22:31:18.818Z,16.11
2022-08-22T22:33:46.444Z,16.09
2022-08-22T22:36:21.275Z,16.08
2022-08-22T22:38:51.700Z,16.07
2022-08-22T22:41:23.457Z,16.08
2022-08-22T22:43:55.327Z,16.07
2022-08-22T22:46:23.981Z,16.08
2022-08-22T22:48:51.918Z,16.10
2022-08-22T22:51:19.876Z,16.11
2022-08-22T22:53:48.144Z,16.13
2022-08-22T22:56:21.266Z,16.15
2022-08-22T22:58:50.681Z,16.14
2022-08-22T23:01:27.285Z,16.14
2022-08-22T23:03:57.476Z,16.13
2022-08-22T23:06:27.792Z,16.13
2022-08-22T23:08:56.320Z,16.12
2022-08-22T23:11:27.964Z,16.11
2022-08-22T23:13:56.348Z,16.10
2022-08-22T23:16:28.003Z,16.10
2022-08-22T23:18:56.432Z,16.10
2022-08-22T23:21:27.064Z,16.11
2022-08-22T23:23:59.808Z,16.12
2022-08-22T23:26:28.283Z,16.13
2022-08-22T23:28:56.553Z,16.15
2022-08-22T23:31:34.433Z,16.17
2022-08-22T23:34:06.304Z,16.18
2022-08-22T23:36:34.583Z,16.18
2022-08-22T23:39:02.837Z,16.15
2022-08-22T23:41:30.459Z,16.13
2022-08-22T23:43:58.322Z,16.10
2022-08-22T23:46:27.191Z,16.05
2022-08-22T23:48:55.087Z,16.02
2022-08-22T23:51:24.937Z,15.99
2022-08-22T23:53:53.617Z,16.00
2022-08-22T23:56:25.486Z,15.99
2022-08-22T23:58:53.460Z,16.02
